Time;durP1;ratioP1;P1;durP2;ratioP2;P2;SDS_P1;SDS_P2;PMS_P1;PMS_P2;Temp;Humidity;BMP_temperature;BMP_pressure;BME280_temperature;BME280_humidity;BME280_pressure;Samples;Min_cycle;Max_cycle;Signal;HPM_P1;HPM_P2
2023/06/14 00:03:22;;;;;;;3.08;2.20;;;;;;;19.51;56.59;96653.31;10502221;28;20447;-76
2023/06/14 00:08:41;;;;;;;2.17;1.98;;;;;;;19.50;56.46;96654.44;10494510;28;20037;-76
2023/06/14 00:14:00;;;;;;;2.40;2.10;;;;;;;19.50;56.46;96659.84;10517162;28;20451;-75
2023/06/14 00:19:20;;;;;;;2.50;2.10;;;;;;;19.51;56.43;96664.13;10501901;28;20051;-75
2023/06/14 00:24:40;;;;;;;2.05;1.95;;;;;;;19.51;56.43;96666.81;10501705;28;20045;-74
2023/06/14 00:30:00;;;;;;;2.30;2.10;;;;;;;19.50;56.56;96657.16;10487125;28;20040;-76
2023/06/14 00:35:20;;;;;;;2.85;1.98;;;;;;;19.50;56.41;96654.44;10501443;28;20033;-76
2023/06/14 00:40:39;;;;;;;2.20;2.00;;;;;;;19.50;56.53;96657.16;10459695;28;20067;-76
2023/06/14 00:45:59;;;;;;;2.40;2.20;;;;;;;19.51;56.44;96660.63;10445546;28;20067;-76
2023/06/14 00:51:18;;;;;;;2.10;1.90;;;;;;;19.49;56.59;96655.56;10445663;28;20041;-76
2023/06/14 00:56:38;;;;;;;2.33;2.10;;;;;;;19.50;56.51;96665.25;10459155;28;20052;-76
2023/06/14 01:01:58;;;;;;;2.03;1.92;;;;;;;19.50;56.58;96661.75;10457343;28;20052;-76
2023/06/14 01:08:02;;;;;;;2.17;2.00;;;;;;;19.49;56.48;96655.56;10500140;28;20463;-75
2023/06/14 01:13:28;;;;;;;1.90;1.80;;;;;;;19.49;56.48;96657.47;10463127;28;20059;-76
2023/06/14 01:18:47;;;;;;;2.10;1.90;;;;;;;19.48;56.63;96651.28;10485699;28;20056;-75
2023/06/14 01:24:09;;;;;;;1.73;1.60;;;;;;;19.47;56.50;96647.00;10484863;28;20044;-76
2023/06/14 01:29:32;;;;;;;1.85;1.73;;;;;;;19.48;56.53;96648.59;10485291;28;20040;-75
2023/06/14 01:34:52;;;;;;;2.10;1.90;;;;;;;19.47;56.61;96648.91;10499552;28;20098;-75
2023/06/14 01:40:14;;;;;;;2.00;1.80;;;;;;;19.46;56.43;96642.69;10499174;28;20041;-75
2023/06/14 01:45:35;;;;;;;1.80;1.70;;;;;;;19.46;56.45;96653.50;10484661;28;20500;-75
2023/06/14 01:50:55;;;;;;;2.08;1.92;;;;;;;19.46;56.53;96652.72;10498584;28;20037;-75
2023/06/14 01:56:15;;;;;;;2.08;1.90;;;;;;;19.46;56.44;96660.81;10484360;28;20040;-75
2023/06/14 02:01:34;;;;;;;2.30;1.80;;;;;;;19.46;56.50;96655.41;10495908;28;20052;-75
2023/06/14 02:06:54;;;;;;;2.00;1.80;;;;;;;19.47;56.50;96654.31;10470009;28;20037;-76
2023/06/14 02:12:14;;;;;;;1.98;1.85;;;;;;;19.45;56.62;96649.22;10483712;28;20044;-76
2023/06/14 02:17:34;;;;;;;2.50;1.90;;;;;;;19.45;56.51;96653.84;10483291;28;20157;-76
2023/06/14 02:22:59;;;;;;;1.60;1.50;;;;;;;19.45;56.66;96651.16;10484939;28;20044;-76
2023/06/14 02:28:18;;;;;;;1.75;1.58;;;;;;;19.44;56.44;96650.34;10512065;28;20040;-76
2023/06/14 02:33:38;;;;;;;1.70;1.60;;;;;;;19.44;56.51;96650.34;10482159;28;20040;-76
2023/06/14 02:38:57;;;;;;;1.70;1.60;;;;;;;19.45;56.44;96656.53;10483114;28;20053;-76
2023/06/14 02:44:18;;;;;;;1.70;1.60;;;;;;;19.43;56.56;96653.38;10498817;28;20113;-76
2023/06/14 02:49:38;;;;;;;1.77;1.67;;;;;;;19.44;56.42;96657.66;10496829;28;20040;-76
2023/06/14 02:54:57;;;;;;;1.92;1.77;;;;;;;19.43;56.45;96659.56;10482737;28;20049;-76
2023/06/14 03:00:17;;;;;;;1.70;1.60;;;;;;;19.42;56.57;96655.28;10482618;28;20056;-76
2023/06/14 03:05:49;;;;;;;1.85;1.75;;;;;;;19.42;56.44;96657.19;10482849;28;20056;-76
2023/06/14 03:11:11;;;;;;;1.95;1.80;;;;;;;19.42;56.40;96659.88;10496994;28;20047;-76
2023/06/14 03:16:32;;;;;;;2.00;1.90;;;;;;;19.42;56.50;96647.16;10468630;28;20076;-76
2023/06/14 03:21:53;;;;;;;1.80;1.70;;;;;;;19.41;56.44;96648.31;10482992;28;20050;-76
2023/06/14 03:27:14;;;;;;;1.65;1.55;;;;;;;19.42;56.49;96652.56;10482034;28;20078;-77
2023/06/14 03:32:37;;;;;;;1.52;1.40;;;;;;;19.41;56.51;96656.41;10483088;28;20044;-77
2023/06/14 03:37:58;;;;;;;1.73;1.63;;;;;;;19.41;56.37;96669.91;10496085;28;20558;-76
2023/06/14 03:43:18;;;;;;;1.83;1.70;;;;;;;19.41;56.41;96682.63;10481910;28;20052;-76
2023/06/14 03:48:38;;;;;;;1.80;1.70;;;;;;;19.41;56.37;96693.44;10489484;28;20049;-76
2023/06/14 03:53:58;;;;;;;1.73;1.63;;;;;;;19.41;56.41;96694.22;10489675;28;20045;-76
2023/06/14 03:59:17;;;;;;;1.50;1.40;;;;;;;19.40;56.40;96695.31;10489410;28;20055;-76
2023/06/14 04:04:37;;;;;;;1.80;1.70;;;;;;;19.40;56.41;96700.72;10489823;28;20053;-76
2023/06/14 04:09:58;;;;;;;1.77;1.67;;;;;;;19.40;56.53;96703.44;10488390;28;20040;-76
2023/06/14 04:15:18;;;;;;;1.70;1.60;;;;;;;19.40;56.45;96716.16;10488069;28;20068;-76
2023/06/14 04:20:40;;;;;;;3.25;1.83;;;;;;;19.40;56.72;96722.34;10487884;28;20113;-75
2023/06/14 04:26:02;;;;;;;1.73;1.63;;;;;;;19.41;57.06;96734.75;10488077;28;20097;-76
2023/06/14 04:31:25;;;;;;;2.03;1.75;;;;;;;19.42;57.20;96727.44;10487617;28;20039;-75
2023/06/14 04:36:49;;;;;;;2.92;1.70;;;;;;;19.42;57.32;96724.72;10501260;28;20049;-75
2023/06/14 04:42:11;;;;;;;2.13;1.70;;;;;;;19.40;57.18;96727.75;10487578;28;20044;-76
2023/06/14 04:47:32;;;;;;;1.73;1.52;;;;;;;19.42;57.30;96732.81;10487271;28;20047;-76
2023/06/14 04:52:53;;;;;;;1.73;1.60;;;;;;;19.42;57.09;96733.63;10486354;28;20044;-75
2023/06/14 04:58:14;;;;;;;3.45;2.50;;;;;;;19.42;55.37;96727.44;10499444;28;20483;-75
2023/06/14 05:03:34;;;;;;;4.53;3.20;;;;;;;18.60;50.38;96724.75;10492300;28;20386;-75
2023/06/14 05:08:54;;;;;;;3.75;2.85;;;;;;;18.44;50.93;96710.97;10499924;28;20037;-75
2023/06/14 05:14:14;;;;;;;3.55;3.25;;;;;;;18.38;50.82;96723.81;10499815;28;20044;-75
2023/06/14 05:19:34;;;;;;;4.53;3.60;;;;;;;18.36;50.97;96720.66;10514349;28;20048;-75
2023/06/14 05:24:54;;;;;;;3.58;3.20;;;;;;;18.27;51.05;96733.34;10499410;28;20484;-75
2023/06/14 05:30:15;;;;;;;5.45;3.20;;;;;;;18.27;51.11;96734.16;10512906;28;20040;-75
2023/06/14 05:35:34;;;;;;;3.50;3.20;;;;;;;18.28;51.45;96738.41;10498915;28;20435;-75
2023/06/14 05:40:54;;;;;;;4.43;3.17;;;;;;;18.37;50.94;96750.00;10484790;28;20055;-75
2023/06/14 05:46:15;;;;;;;4.60;3.30;;;;;;;18.35;50.44;96746.06;10498558;28;20093;-75
2023/06/14 05:51:35;;;;;;;3.63;3.17;;;;;;;18.28;50.54;96746.50;10484212;28;20048;-75
2023/06/14 05:56:54;;;;;;;4.72;3.22;;;;;;;18.24;50.57;96742.84;10498011;28;20049;-75
2023/06/14 06:02:14;;;;;;;4.93;3.08;;;;;;;18.30;50.81;96746.97;10490699;28;20053;-75
2023/06/14 06:07:34;;;;;;;5.07;3.50;;;;;;;18.40;51.23;96751.28;10483258;28;20048;-75
2023/06/14 06:12:54;;;;;;;4.68;3.25;;;;;;;18.50;51.53;96760.94;10497714;28;20516;-75
2023/06/14 06:18:14;;;;;;;3.30;3.00;;;;;;;18.55;51.46;96764.28;10497309;28;20048;-75
2023/06/14 06:23:33;;;;;;;3.53;3.03;;;;;;;18.62;50.33;96766.53;10479327;28;20044;-75
2023/06/14 06:28:52;;;;;;;3.45;3.15;;;;;;;18.68;50.71;96769.81;10481999;28;20037;-75
2023/06/14 06:34:12;;;;;;;4.60;2.97;;;;;;;18.73;50.52;96783.16;10497503;28;20448;-75
2023/06/14 06:39:31;;;;;;;3.72;2.70;;;;;;;18.74;49.90;96782.84;10496177;28;20037;-75
2023/06/14 06:44:51;;;;;;;4.35;2.63;;;;;;;18.75;49.87;96789.03;10482804;28;20048;-75
2023/06/14 06:50:10;;;;;;;6.60;3.10;;;;;;;18.79;50.31;96798.06;10511102;28;20040;-75
2023/06/14 06:55:30;;;;;;;5.57;3.40;;;;;;;18.84;51.54;96800.66;10511030;28;20036;-75
2023/06/14 07:00:50;;;;;;;4.25;3.33;;;;;;;18.84;51.48;96802.56;10495327;28;20044;-75
2023/06/14 07:06:10;;;;;;;4.40;3.42;;;;;;;18.84;52.08;96807.97;10481553;28;20048;-75
2023/06/14 07:11:30;;;;;;;6.32;3.58;;;;;;;18.87;52.09;96818.09;10482322;28;20165;-75
2023/06/14 07:16:49;;;;;;;6.32;3.38;;;;;;;18.84;51.85;96821.47;10495319;28;20484;-75
2023/06/14 07:22:09;;;;;;;4.22;3.70;;;;;;;18.86;51.96;96824.63;10494959;28;20044;-75
2023/06/14 07:27:28;;;;;;;4.15;3.50;;;;;;;18.89;51.69;96834.78;10496033;28;20045;-75
2023/06/14 07:32:49;;;;;;;4.65;3.35;;;;;;;18.92;51.54;96842.25;10495642;28;20044;-75
2023/06/14 07:38:08;;;;;;;3.53;2.80;;;;;;;18.93;51.28;96841.13;10482121;28;20109;-75
2023/06/14 07:43:28;;;;;;;3.75;3.40;;;;;;;18.94;51.65;96848.13;10495434;28;20051;-74
2023/06/14 07:48:47;;;;;;;3.80;3.00;;;;;;;18.96;51.85;96843.97;10480742;28;20048;-75
2023/06/14 07:54:08;;;;;;;5.80;3.15;;;;;;;18.98;50.62;96837.50;10481513;28;20049;-75
2023/06/14 07:59:27;;;;;;;2.88;2.63;;;;;;;18.98;50.20;96848.28;10494999;28;20048;-75
2023/06/14 08:04:48;;;;;;;7.97;2.72;;;;;;;18.99;50.20;96849.84;10483434;28;20102;-75
2023/06/14 08:10:07;;;;;;;5.40;3.00;;;;;;;19.01;49.86;96847.63;10480607;28;20043;-75
2023/06/14 08:15:27;;;;;;;3.92;2.90;;;;;;;19.02;50.32;96854.63;10494561;28;20041;-76
2023/06/14 08:20:46;;;;;;;4.97;3.10;;;;;;;19.03;50.29;96845.41;10494565;28;20049;-74
2023/06/14 08:26:06;;;;;;;3.00;2.70;;;;;;;19.03;50.87;96846.19;10494413;28;20120;-75
2023/06/14 08:31:27;;;;;;;3.53;2.85;;;;;;;19.06;51.02;96852.88;10481148;28;20492;-75
2023/06/14 08:36:46;;;;;;;3.13;2.70;;;;;;;19.07;50.77;96849.88;10487632;28;20487;-75
2023/06/14 08:42:07;;;;;;;3.30;2.97;;;;;;;19.07;50.76;96855.25;10501529;28;20044;-75
2023/06/14 08:47:28;;;;;;;13.70;6.78;;;;;;;19.08;50.23;96854.13;10501372;28;20037;-75
2023/06/14 08:52:53;;;;;;;8.57;4.55;;;;;;;19.10;50.74;96862.72;10487306;28;20052;-75
2023/06/14 08:58:14;;;;;;;7.30;3.40;;;;;;;19.10;50.76;96868.13;10487236;28;20123;-75
2023/06/14 09:03:34;;;;;;;8.65;4.10;;;;;;;19.11;50.93;96858.91;10479141;28;20052;-75
2023/06/14 09:08:56;;;;;;;8.27;3.40;;;;;;;19.13;50.92;96870.19;10500629;28;20047;-75
2023/06/14 09:14:18;;;;;;;5.78;3.05;;;;;;;19.15;51.06;96867.16;10500945;28;20045;-75
2023/06/14 09:19:37;;;;;;;4.20;2.60;;;;;;;19.17;50.54;96873.03;10486685;28;20049;-75
2023/06/14 09:24:57;;;;;;;3.22;2.92;;;;;;;19.18;50.83;96877.31;10486266;28;20047;-75
2023/06/14 09:30:20;;;;;;;5.35;2.80;;;;;;;19.19;50.70;96872.72;10499907;28;20044;-75
2023/06/14 09:35:40;;;;;;;5.82;2.75;;;;;;;19.22;50.74;96877.47;10499852;28;20416;-75
2023/06/14 09:40:59;;;;;;;3.70;2.85;;;;;;;19.21;50.65;96862.38;10485414;28;20051;-75
2023/06/14 09:46:19;;;;;;;4.13;2.63;;;;;;;19.22;50.55;96867.47;10498957;28;20041;-75
2023/06/14 09:51:43;;;;;;;4.05;2.90;;;;;;;19.24;50.50;96861.75;10499248;28;20044;-75
2023/06/14 09:57:05;;;;;;;4.10;3.10;;;;;;;19.26;50.11;96860.31;10499010;28;20045;-76
2023/06/14 10:02:38;;;;;;;6.03;3.10;;;;;;;19.29;49.68;96861.59;10494121;28;20122;-75
2023/06/14 10:08:06;;;;;;;4.03;3.00;;;;;;;19.30;49.35;96855.84;10470871;28;20069;-75
2023/06/14 10:13:27;;;;;;;3.38;3.08;;;;;;;19.31;49.88;96862.84;10484315;28;20049;-75
2023/06/14 10:18:52;;;;;;;4.78;3.15;;;;;;;19.33;49.94;96857.13;10498262;28;20048;-75
2023/06/14 10:24:13;;;;;;;4.85;3.10;;;;;;;19.34;49.84;96856.00;10512923;28;20447;-75
2023/06/14 10:29:33;;;;;;;3.20;2.90;;;;;;;19.33;49.72;96862.53;10469903;28;20040;-75
2023/06/14 10:34:57;;;;;;;3.80;3.38;;;;;;;19.33;49.71;96859.84;10497393;28;20044;-75
2023/06/14 10:40:33;;;;;;;4.35;3.40;;;;;;;19.32;48.84;96853.63;10483429;28;20056;-76
2023/06/14 10:46:17;;;;;;;3.55;3.25;;;;;;;19.33;48.48;96846.31;10469084;28;20404;-76
2023/06/14 10:51:45;;;;;;;4.88;3.42;;;;;;;19.34;48.84;96850.59;10497159;28;20043;-76
2023/06/14 10:57:07;;;;;;;3.50;3.17;;;;;;;19.34;49.24;96834.38;10496281;28;20048;-76
2023/06/14 11:02:51;;;;;;;7.03;3.17;;;;;;;19.36;48.73;96843.75;10491611;28;20083;-76
2023/06/14 11:08:33;;;;;;;4.70;3.30;;;;;;;19.38;49.12;96851.53;10495883;28;20044;-76
2023/06/14 11:13:53;;;;;;;3.70;3.40;;;;;;;19.40;49.18;96857.41;10495593;28;20041;-75
2023/06/14 11:19:12;;;;;;;3.50;3.20;;;;;;;19.40;49.24;96843.91;10510697;28;20044;-75
2023/06/14 11:24:33;;;;;;;3.72;3.35;;;;;;;19.40;49.47;96838.50;10510505;28;20499;-75
2023/06/14 11:29:52;;;;;;;3.92;3.10;;;;;;;19.41;49.34;96834.69;10495332;28;20037;-75
2023/06/14 11:35:12;;;;;;;3.22;2.75;;;;;;;19.43;48.55;96840.56;10481105;28;20074;-75
2023/06/14 11:40:31;;;;;;;5.05;3.22;;;;;;;19.44;48.26;96834.03;10495167;28;20101;-75
2023/06/14 11:45:52;;;;;;;4.55;3.00;;;;;;;19.46;47.73;96837.22;10480820;28;20045;-75
2023/06/14 11:51:12;;;;;;;4.07;3.13;;;;;;;19.47;48.24;96833.41;10494705;28;20045;-75
2023/06/14 11:56:32;;;;;;;4.13;3.05;;;;;;;19.47;47.42;96822.59;10480862;28;20044;-75
2023/06/14 12:01:55;;;;;;;4.60;3.03;;;;;;;19.50;47.19;96818.44;10491654;28;20407;-75
2023/06/14 12:07:17;;;;;;;5.78;3.13;;;;;;;19.50;47.57;96808.47;10512544;28;20040;-75
2023/06/14 12:12:38;;;;;;;6.18;3.45;;;;;;;19.51;47.26;96799.22;10502447;28;20090;-75
2023/06/14 12:17:58;;;;;;;11.43;4.57;;;;;;;19.52;46.64;96806.22;10502019;28;20044;-82
2023/06/14 12:23:17;;;;;;;9.05;4.15;;;;;;;19.54;46.43;96806.69;10474223;28;20106;-76
2023/06/14 12:28:37;;;;;;;12.15;4.55;;;;;;;19.55;46.76;96797.44;10501643;28;20040;-76
2023/06/14 12:33:57;;;;;;;9.82;4.68;;;;;;;19.58;46.92;96803.31;10501587;28;20124;-76
2023/06/14 12:39:16;;;;;;;11.63;4.72;;;;;;;19.59;47.16;96799.53;10501199;28;20055;-76
2023/06/14 12:44:40;;;;;;;8.77;4.25;;;;;;;19.60;47.29;96803.78;10501219;28;20123;-76
2023/06/14 12:50:00;;;;;;;10.90;4.20;;;;;;;19.61;47.51;96808.88;10501425;28;20451;-76
2023/06/14 12:55:19;;;;;;;7.15;3.83;;;;;;;19.62;47.58;96796.97;10500659;28;20040;-76
2023/06/14 13:00:39;;;;;;;9.10;4.07;;;;;;;19.64;47.67;96796.63;10486717;28;20074;-76
2023/06/14 13:05:59;;;;;;;7.28;3.97;;;;;;;19.65;47.91;96798.22;10500250;28;20071;-76
2023/06/14 13:11:19;;;;;;;7.70;4.07;;;;;;;19.66;48.07;96797.91;10485987;28;20040;-76
2023/06/14 13:16:38;;;;;;;8.85;5.00;;;;;;;19.67;48.34;96802.19;10485074;28;20097;-76
2023/06/14 13:21:58;;;;;;;10.63;5.10;;;;;;;19.70;49.18;96803.47;10499717;28;20040;-75
2023/06/14 13:27:18;;;;;;;6.40;4.13;;;;;;;19.71;49.50;96807.72;10499431;28;20048;-76
2023/06/14 13:32:37;;;;;;;9.82;4.50;;;;;;;19.72;49.64;96807.44;10499219;28;20432;-76
2023/06/14 13:37:57;;;;;;;7.75;4.35;;;;;;;19.73;49.87;96810.94;10499132;28;20056;-76
2023/06/14 13:43:16;;;;;;;7.68;3.65;;;;;;;19.72;50.00;96809.34;10484677;28;20044;-76
2023/06/14 13:48:36;;;;;;;6.88;3.55;;;;;;;19.74;50.00;96809.81;10498369;28;20048;-76
2023/06/14 13:53:55;;;;;;;5.75;3.60;;;;;;;19.74;50.06;96810.63;10513387;28;20040;-76
2023/06/14 13:59:16;;;;;;;5.22;3.38;;;;;;;19.75;50.29;96819.50;10498265;28;20037;-76
2023/06/14 14:04:35;;;;;;;6.78;3.85;;;;;;;19.77;50.35;96816.47;10473255;28;20055;-76
2023/06/14 14:09:57;;;;;;;8.40;3.55;;;;;;;19.75;50.51;96823.00;10483657;28;20119;-76
2023/06/14 14:15:17;;;;;;;6.55;2.75;;;;;;;19.75;50.43;96817.59;10512674;28;20041;-76
2023/06/14 14:20:36;;;;;;;5.03;2.80;;;;;;;19.76;50.57;96818.41;10483342;28;20044;-76
2023/06/14 14:25:56;;;;;;;7.68;3.75;;;;;;;19.76;50.74;96823.81;10497190;28;20032;-76
2023/06/14 14:31:16;;;;;;;4.30;3.10;;;;;;;19.77;50.94;96824.59;10468735;28;20487;-76
2023/06/14 14:36:37;;;;;;;4.88;3.08;;;;;;;19.77;50.86;96821.88;10496841;28;20075;-76
2023/06/14 14:41:57;;;;;;;6.55;3.88;;;;;;;19.77;50.97;96825.38;10482696;28;20040;-76
2023/06/14 14:47:16;;;;;;;5.78;3.10;;;;;;;19.79;51.14;96822.34;10496198;28;20047;-77
2023/06/14 14:52:36;;;;;;;4.65;3.00;;;;;;;19.78;51.08;96832.38;10468339;28;20051;-76
2023/06/14 14:57:55;;;;;;;5.75;3.30;;;;;;;19.79;51.47;96828.56;10496083;28;20048;-76
2023/06/14 15:03:15;;;;;;;5.15;3.22;;;;;;;19.79;51.28;96825.84;10460860;28;20052;-76
2023/06/14 15:08:34;;;;;;;5.07;3.17;;;;;;;19.81;51.33;96825.53;10510641;28;20048;-76
2023/06/14 15:13:54;;;;;;;5.03;3.42;;;;;;;19.79;51.40;96828.56;10481580;28;20408;-76
2023/06/14 15:19:14;;;;;;;5.35;3.15;;;;;;;19.80;51.46;96823.94;10510572;28;20051;-76
2023/06/14 15:24:34;;;;;;;4.95;2.97;;;;;;;19.82;51.58;96832.53;10495451;28;20048;-76
2023/06/14 15:29:54;;;;;;;5.15;2.92;;;;;;;19.82;51.75;96829.84;10495215;28;20064;-76
2023/06/14 15:35:16;;;;;;;6.30;3.15;;;;;;;19.84;51.79;96819.47;10481014;28;20404;-77
2023/06/14 15:40:35;;;;;;;5.88;3.30;;;;;;;19.84;51.79;96809.47;10487287;28;20049;-76
2023/06/14 15:45:55;;;;;;;4.63;2.90;;;;;;;19.82;51.51;96819.81;10475513;28;20041;-77
2023/06/14 15:51:15;;;;;;;4.18;3.10;;;;;;;19.81;50.59;96815.50;10503326;28;20408;-77
2023/06/14 15:56:35;;;;;;;5.07;2.70;;;;;;;19.78;50.13;96810.75;10518406;28;20044;-77
2023/06/14 16:01:55;;;;;;;4.90;2.90;;;;;;;19.79;49.67;96820.44;10514922;28;20049;-77
2023/06/14 16:07:14;;;;;;;6.60;3.10;;;;;;;19.78;49.11;96821.56;10517850;28;20041;-80
2023/06/14 16:12:34;;;;;;;5.45;2.97;;;;;;;19.81;49.50;96826.31;10488448;28;20039;-77
2023/06/14 16:17:54;;;;;;;5.25;2.95;;;;;;;19.81;49.12;96831.72;10488411;28;20052;-78
2023/06/14 16:23:14;;;;;;;3.63;2.90;;;;;;;19.79;49.74;96825.06;10502840;28;20040;-78
2023/06/14 16:28:34;;;;;;;3.60;2.33;;;;;;;19.78;47.74;96828.88;10488292;28;20048;-80
2023/06/14 16:33:56;;;;;;;3.67;2.75;;;;;;;19.77;47.87;96830.00;10460582;28;20390;-80
2023/06/14 16:39:16;;;;;;;3.15;2.63;;;;;;;19.74;48.33;96826.81;10446902;28;20045;-74
2023/06/14 16:44:36;;;;;;;3.17;2.65;;;;;;;19.74;47.79;96834.94;10460075;28;20417;-76
2023/06/14 16:49:55;;;;;;;3.15;2.75;;;;;;;19.73;46.43;96836.03;10459904;28;20123;-76
2023/06/14 16:55:15;;;;;;;4.35;2.90;;;;;;;19.73;46.02;96844.16;10444950;28;20477;-76
2023/06/14 17:00:35;;;;;;;3.50;2.63;;;;;;;19.73;46.22;96844.16;10459503;28;20044;-75
2023/06/14 17:05:58;;;;;;;4.45;2.92;;;;;;;19.74;46.12;96847.66;10459755;28;20048;-77
2023/06/14 17:11:18;;;;;;;3.17;2.50;;;;;;;19.73;45.88;96838.75;10444845;28;20041;-79
2023/06/14 17:16:38;;;;;;;3.40;3.10;;;;;;;19.75;46.05;96843.84;10472824;28;20041;-76
2023/06/14 17:21:58;;;;;;;5.07;3.53;;;;;;;19.73;46.41;96852.25;10458551;28;20490;-77
2023/06/14 17:27:17;;;;;;;4.10;3.00;;;;;;;19.73;46.58;96852.25;10430566;28;20052;-77
2023/06/14 17:32:37;;;;;;;4.63;3.05;;;;;;;19.72;45.89;96856.09;10464870;28;20094;-77
2023/06/14 17:37:57;;;;;;;2.90;2.60;;;;;;;19.72;46.79;96849.91;10499083;28;20488;-76
2023/06/14 17:43:17;;;;;;;4.10;2.75;;;;;;;19.74;47.55;96863.88;10499027;28;20382;-76
2023/06/14 17:48:37;;;;;;;6.80;3.28;;;;;;;19.75;48.10;96862.75;10498640;28;20048;-77
2023/06/14 17:53:56;;;;;;;4.35;2.65;;;;;;;19.74;49.13;96867.38;10499365;28;20481;-77
2023/06/14 17:59:16;;;;;;;9.98;3.08;;;;;;;19.75;49.98;96865.47;10499271;28;20040;-76
2023/06/14 18:04:36;;;;;;;5.45;3.58;;;;;;;19.71;49.58;96869.91;10485590;28;20053;-77
2023/06/14 18:09:55;;;;;;;3.67;3.08;;;;;;;19.70;50.11;96874.50;10498578;28;20044;-77
2023/06/14 18:15:14;;;;;;;6.75;3.10;;;;;;;19.71;50.33;96878.00;10484056;28;20097;-76
2023/06/14 18:20:34;;;;;;;3.75;2.78;;;;;;;19.70;50.34;96873.72;10498217;28;20048;-80
2023/06/14 18:25:54;;;;;;;3.80;3.20;;;;;;;19.68;50.91;96874.03;10469477;28;20477;-79
2023/06/14 18:31:14;;;;;;;4.00;2.92;;;;;;;19.67;50.84;96875.16;10482883;28;20066;-82
2023/06/14 18:36:37;;;;;;;4.65;3.47;;;;;;;19.67;51.21;96880.56;10496958;28;20032;-80
2023/06/14 18:41:56;;;;;;;3.20;2.90;;;;;;;19.66;51.26;96878.97;10498311;28;20047;-82
2023/06/14 18:47:16;;;;;;;3.80;2.72;;;;;;;19.66;51.41;96881.69;10496315;28;20043;-78
2023/06/14 18:52:36;;;;;;;3.20;2.67;;;;;;;19.65;51.36;96880.09;10482867;28;20047;-79
2023/06/14 18:57:56;;;;;;;7.63;2.90;;;;;;;19.66;51.33;96878.16;10482253;28;20508;-79
2023/06/14 19:03:15;;;;;;;3.35;2.75;;;;;;;19.65;51.35;96892.81;10488905;28;20135;-78
2023/06/14 19:08:35;;;;;;;4.18;3.03;;;;;;;19.63;51.41;96892.34;10481843;28;20064;-78
2023/06/14 19:13:55;;;;;;;5.35;3.20;;;;;;;19.46;49.33;96896.66;10481650;28;20068;-78
2023/06/14 19:19:14;;;;;;;5.53;3.33;;;;;;;19.53;50.46;96912.41;10481166;28;20094;-78
2023/06/14 19:24:34;;;;;;;3.65;3.00;;;;;;;19.56;50.56;96909.84;10495968;28;20499;-78
2023/06/14 19:29:54;;;;;;;3.00;2.80;;;;;;;19.59;51.46;96913.03;10481744;28;20044;-75
2023/06/14 19:35:13;;;;;;;5.30;3.15;;;;;;;19.62;51.85;96917.75;10494965;28;20048;-75
2023/06/14 19:40:33;;;;;;;3.33;2.78;;;;;;;19.63;51.92;96922.06;10481105;28;20063;-74
2023/06/14 19:45:53;;;;;;;5.47;2.83;;;;;;;19.64;52.46;96923.63;10480889;28;20044;-76
2023/06/14 19:51:12;;;;;;;3.67;3.08;;;;;;;19.64;52.85;96929.88;10509532;28;20041;-74
2023/06/14 19:56:31;;;;;;;4.53;3.05;;;;;;;19.65;52.88;96936.06;10480660;28;20044;-74
2023/06/14 20:01:51;;;;;;;3.50;3.20;;;;;;;19.64;53.10;96946.06;10492186;28;20056;-74
2023/06/14 20:07:10;;;;;;;3.15;2.85;;;;;;;19.64;53.15;96947.97;10509445;28;20055;-74
2023/06/14 20:12:30;;;;;;;3.45;2.90;;;;;;;19.65;53.43;96946.88;10494375;28;20041;-74
2023/06/14 20:17:49;;;;;;;3.60;2.80;;;;;;;19.65;53.55;96946.88;10494361;28;20040;-74
2023/06/14 20:23:10;;;;;;;3.40;3.10;;;;;;;19.65;53.90;96960.38;10509342;28;20044;-74
2023/06/14 20:28:31;;;;;;;1.98;1.88;;;;;;;19.66;54.14;96961.94;10498043;28;20040;-73
2023/06/14 20:33:50;;;;;;;3.15;2.85;;;;;;;19.65;54.20;96961.16;10501744;28;20071;-73
2023/06/14 20:39:10;;;;;;;4.45;3.00;;;;;;;19.66;54.32;96970.06;10501522;28;20044;-74
2023/06/14 20:44:29;;;;;;;3.05;2.85;;;;;;;19.66;54.30;96972.75;10516245;28;20051;-74
2023/06/14 20:49:49;;;;;;;3.40;2.83;;;;;;;19.66;54.51;96964.66;10500925;28;20044;-74
2023/06/14 20:55:09;;;;;;;3.40;3.10;;;;;;;19.65;54.63;96960.38;10486705;28;20044;-74
2023/06/14 21:00:28;;;;;;;2.88;2.67;;;;;;;19.65;54.61;96968.47;10486405;28;20052;-74
2023/06/14 21:05:48;;;;;;;3.20;2.90;;;;;;;19.66;54.62;96962.75;10515239;28;20059;-75
2023/06/14 21:11:08;;;;;;;3.00;2.70;;;;;;;19.66;54.87;96959.25;10472344;28;20048;-76
2023/06/14 21:16:28;;;;;;;3.08;2.78;;;;;;;19.65;54.82;96953.06;10486758;28;20493;-75
2023/06/14 21:21:47;;;;;;;3.13;2.83;;;;;;;19.65;55.17;96955.75;10501259;28;20045;-75
2023/06/14 21:27:07;;;;;;;2.97;2.72;;;;;;;19.66;55.08;96960.06;10485600;28;20071;-75
2023/06/14 21:32:26;;;;;;;2.65;2.45;;;;;;;19.65;55.22;96955.75;10514372;28;20052;-76
2023/06/14 21:37:46;;;;;;;3.50;2.88;;;;;;;19.67;55.36;96958.16;10498517;28;20501;-76
2023/06/14 21:43:05;;;;;;;3.28;2.97;;;;;;;19.66;55.38;96953.84;10514204;28;20040;-76
2023/06/14 21:48:24;;;;;;;2.80;2.60;;;;;;;19.66;55.55;96948.44;10498687;28;20120;-75
2023/06/14 21:53:47;;;;;;;3.20;2.90;;;;;;;19.65;55.47;96954.97;10498603;28;20036;-76
2023/06/14 21:59:06;;;;;;;2.90;2.70;;;;;;;19.65;55.60;96954.97;10499119;28;20044;-73
2023/06/14 22:04:26;;;;;;;2.75;2.55;;;;;;;19.65;55.78;96957.69;10473886;28;20408;-72
2023/06/14 22:09:48;;;;;;;3.20;2.90;;;;;;;19.65;55.72;96952.28;10483825;28;20040;-73
2023/06/14 22:15:08;;;;;;;2.90;2.70;;;;;;;19.65;55.82;96960.38;10484056;28;20037;-73
2023/06/14 22:20:28;;;;;;;3.15;2.85;;;;;;;19.65;55.82;96960.38;10469578;28;20041;-73
2023/06/14 22:25:48;;;;;;;2.95;2.60;;;;;;;19.65;55.79;96957.69;10497440;28;20052;-72
2023/06/14 22:31:09;;;;;;;2.83;2.53;;;;;;;19.65;55.84;96963.06;10511884;28;20037;-72
2023/06/14 22:36:29;;;;;;;2.97;2.45;;;;;;;19.65;55.80;96968.47;10496939;28;20560;-73
2023/06/14 22:41:49;;;;;;;2.88;2.60;;;;;;;19.64;55.95;96958.78;10496638;28;20044;-73
2023/06/14 22:47:10;;;;;;;2.50;2.30;;;;;;;19.64;55.95;96966.88;10496941;28;20041;-73
2023/06/14 22:52:31;;;;;;;2.55;2.35;;;;;;;19.64;55.93;96961.47;10495629;28;20048;-73
2023/06/14 22:57:51;;;;;;;2.78;2.42;;;;;;;19.64;56.10;96958.78;10511208;28;20404;-73
2023/06/14 23:03:11;;;;;;;2.95;2.65;;;;;;;19.63;56.17;96959.91;10489172;28;20079;-72
2023/06/14 23:08:32;;;;;;;2.72;2.53;;;;;;;19.64;56.14;96958.78;10495769;28;20037;-73
2023/06/14 23:13:53;;;;;;;3.03;2.75;;;;;;;19.63;56.24;96957.19;10481471;28;20074;-73
2023/06/14 23:19:13;;;;;;;3.08;2.40;;;;;;;19.63;56.20;96959.91;10481684;28;20405;-72
2023/06/14 23:24:37;;;;;;;2.80;2.60;;;;;;;19.63;56.25;96954.50;10481310;28;20083;-73
2023/06/14 23:29:58;;;;;;;2.65;2.45;;;;;;;19.63;56.21;96954.50;10481186;28;20044;-73
2023/06/14 23:35:18;;;;;;;2.72;2.40;;;;;;;19.62;56.30;96947.50;10481305;28;20045;-73
2023/06/14 23:40:38;;;;;;;2.63;2.42;;;;;;;19.63;56.35;96954.50;10481199;28;20045;-73
2023/06/14 23:45:59;;;;;;;2.55;2.35;;;;;;;19.62;56.50;96936.69;10509985;28;20040;-73
2023/06/14 23:51:21;;;;;;;2.70;2.50;;;;;;;19.61;56.52;96929.69;10509930;28;20053;-73
2023/06/14 23:56:41;;;;;;;2.50;2.30;;;;;;;19.60;56.63;96928.09;10467028;28;20075;-73
